createdAt,value
2023-03-22T00:03:17.550Z,4.87
2023-03-22T00:07:28.448Z,4.67
2023-03-22T00:11:33.476Z,4.07
2023-03-22T00:15:39.762Z,4.07
2023-03-22T00:19:45.251Z,4.30
2023-03-22T00:23:48.968Z,3.83
2023-03-22T00:27:54.421Z,4.00
2023-03-22T00:31:58.059Z,3.30
2023-03-22T00:36:52.208Z,3.50
2023-03-22T00:41:24.113Z,3.67
2023-03-22T00:45:29.203Z,3.77
2023-03-22T00:49:32.808Z,4.23
2023-03-22T00:54:04.340Z,4.23
2023-03-22T00:58:09.393Z,3.63
2023-03-22T01:02:15.326Z,3.73
2023-03-22T01:06:39.196Z,3.43
2023-03-22T01:10:44.840Z,3.70
2023-03-22T01:14:48.505Z,3.77
2023-03-22T01:18:54.134Z,3.03
2023-03-22T01:22:58.214Z,3.10
2023-03-22T01:27:02.181Z,3.90
2023-03-22T01:31:34.553Z,3.40
2023-03-22T01:35:41.259Z,3.33
2023-03-22T01:39:49.643Z,4.50
2023-03-22T01:44:21.355Z,4.70
2023-03-22T01:48:28.480Z,3.90
2023-03-22T01:52:33.724Z,3.90
2023-03-22T01:56:54.365Z,3.70
2023-03-22T02:01:41.228Z,5.47
2023-03-22T02:05:45.914Z,4.43
2023-03-22T02:09:52.216Z,5.07
2023-03-22T02:14:27.484Z,5.30
2023-03-22T02:19:18.761Z,4.40
2023-03-22T02:23:44.597Z,5.40
2023-03-22T02:28:20.857Z,5.20
2023-03-22T02:32:49.873Z,5.23
2023-03-22T02:37:27.580Z,5.90
2023-03-22T02:42:22.598Z,5.73
2023-03-22T02:46:52.345Z,6.33
2023-03-22T02:51:08.802Z,6.20
2023-03-22T02:59:53.203Z,7.03
2023-03-22T03:04:01.356Z,5.77
2023-03-22T03:08:05.933Z,6.57
2023-03-22T03:12:19.305Z,6.37
2023-03-22T03:16:27.650Z,6.07
2023-03-22T03:21:00.505Z,6.60
2023-03-22T03:25:18.459Z,6.87
2023-03-22T03:29:31.868Z,6.60
2023-03-22T03:33:37.208Z,5.67
2023-03-22T03:37:47.370Z,6.27
2023-03-22T03:41:53.950Z,4.93
2023-03-22T03:45:58.479Z,6.30
2023-03-22T03:50:52.531Z,6.00
2023-03-22T03:54:58.345Z,6.00
2023-03-22T03:59:16.052Z,5.50
2023-03-22T04:03:20.187Z,5.73
2023-03-22T04:07:40.640Z,5.67
2023-03-22T04:12:41.017Z,6.57
2023-03-22T04:16:51.547Z,5.43
2023-03-22T04:20:57.741Z,5.33
2023-03-22T04:25:04.499Z,5.30
2023-03-22T04:29:08.881Z,5.60
2023-03-22T04:33:56.355Z,4.93
2023-03-22T04:38:08.163Z,4.90
2023-03-22T04:42:12.734Z,5.70
2023-03-22T04:46:44.682Z,5.00
2023-03-22T04:50:53.711Z,4.93
2023-03-22T04:55:04.489Z,5.00
2023-03-22T04:59:11.052Z,5.67
2023-03-22T05:03:14.837Z,4.50
2023-03-22T05:07:23.450Z,3.93
2023-03-22T05:11:31.285Z,5.10
2023-03-22T05:16:32.883Z,5.27
2023-03-22T05:20:39.036Z,4.57
2023-03-22T05:24:49.385Z,5.00
2023-03-22T05:29:08.210Z,5.80
2023-03-22T05:33:32.197Z,5.23
2023-03-22T05:37:35.990Z,4.80
2023-03-22T05:41:44.899Z,5.13
2023-03-22T05:45:49.632Z,4.90
2023-03-22T05:50:11.016Z,5.07
2023-03-22T05:54:14.853Z,4.90
2023-03-22T05:58:29.101Z,5.07
2023-03-22T06:02:33.349Z,5.33
2023-03-22T06:06:37.229Z,4.60
2023-03-22T06:10:52.320Z,4.97
2023-03-22T06:14:57.610Z,4.17
2023-03-22T06:19:21.278Z,5.17
2023-03-22T06:23:25.228Z,5.27
2023-03-22T06:27:30.193Z,5.60
2023-03-22T06:31:35.769Z,5.00
2023-03-22T06:35:44.376Z,4.93
2023-03-22T06:39:52.922Z,5.60
2023-03-22T06:44:00.535Z,5.03
2023-03-22T06:54:24.848Z,6.07
2023-03-22T06:58:41.277Z,5.60
2023-03-22T07:02:45.057Z,5.00
2023-03-22T07:07:57.662Z,5.90
2023-03-22T07:12:05.486Z,4.90
2023-03-22T07:16:11.939Z,5.63
2023-03-22T07:20:20.146Z,5.63
2023-03-22T07:24:25.467Z,6.00
2023-03-22T07:28:44.853Z,5.83
2023-03-22T07:32:50.712Z,6.93
2023-03-22T07:36:57.274Z,5.37
2023-03-22T07:41:51.699Z,6.17
2023-03-22T07:45:59.828Z,7.00
2023-03-22T07:50:22.300Z,6.20
2023-03-22T07:54:46.345Z,6.37
2023-03-22T07:58:50.235Z,7.20
2023-03-22T08:02:56.560Z,6.23
2023-03-22T08:07:15.920Z,6.60
2023-03-22T08:11:29.011Z,6.00
2023-03-22T08:15:39.170Z,5.30
2023-03-22T08:19:45.542Z,5.03
2023-03-22T08:24:14.439Z,5.27
2023-03-22T08:28:38.488Z,4.70
2023-03-22T08:32:42.609Z,4.60
2023-03-22T08:36:54.326Z,5.30
2023-03-22T08:40:58.115Z,5.60
2023-03-22T08:45:31.984Z,4.50
2023-03-22T08:49:44.635Z,6.07
2023-03-22T08:54:01.090Z,3.80
2023-03-22T08:58:23.254Z,6.83
2023-03-22T09:02:45.108Z,7.10
2023-03-22T09:06:49.484Z,6.40
2023-03-22T09:10:56.625Z,5.30
2023-03-22T09:15:01.115Z,6.40
2023-03-22T09:19:26.792Z,5.93
2023-03-22T09:23:30.640Z,4.40
2023-03-22T09:27:36.863Z,6.87
2023-03-22T09:31:49.141Z,4.73
2023-03-22T09:35:58.190Z,6.43
2023-03-22T09:40:02.108Z,4.97
2023-03-22T09:44:22.565Z,6.63
2023-03-22T09:48:32.741Z,6.30
2023-03-22T09:52:36.722Z,5.70
2023-03-22T09:56:41.870Z,6.27
2023-03-22T10:00:57.424Z,5.37
2023-03-22T10:05:11.567Z,4.77
2023-03-22T10:09:19.751Z,5.47
2023-03-22T10:13:33.932Z,4.30
2023-03-22T10:17:43.358Z,3.00
2023-03-22T10:21:49.820Z,2.70
2023-03-22T10:25:57.826Z,2.00
2023-03-22T10:30:27.859Z,2.47
2023-03-22T10:34:33.902Z,2.13
2023-03-22T10:38:53.735Z,3.53
2023-03-22T10:43:01.187Z,2.17
2023-03-22T10:47:08.484Z,3.13
2023-03-22T10:51:41.520Z,2.70
2023-03-22T10:55:46.563Z,2.07
2023-03-22T10:59:52.689Z,1.80
2023-03-22T11:03:59.677Z,1.83
2023-03-22T11:08:06.945Z,1.20
2023-03-22T11:12:14.855Z,1.00
2023-03-22T11:16:20.463Z,0.70
2023-03-22T11:20:24.337Z,1.20
2023-03-22T11:24:34.765Z,0.80
2023-03-22T11:28:42.512Z,1.10
2023-03-22T11:32:46.365Z,1.50
2023-03-22T11:36:57.264Z,0.87
2023-03-22T11:41:04.652Z,1.03
2023-03-22T11:45:58.960Z,1.23
2023-03-22T11:50:08.743Z,1.17
2023-03-22T11:54:36.457Z,0.80
2023-03-22T11:59:25.893Z,1.03
2023-03-22T12:08:38.745Z,1.20
2023-03-22T12:12:49.587Z,1.00
2023-03-22T12:17:00.158Z,1.50
2023-03-22T12:21:03.906Z,1.00
2023-03-22T12:25:18.422Z,1.20
2023-03-22T12:29:23.446Z,0.90
2023-03-22T12:33:31.215Z,0.77
2023-03-22T12:37:43.979Z,1.20
2023-03-22T12:41:50.390Z,1.80
2023-03-22T12:46:05.598Z,1.73
2023-03-22T12:50:17.111Z,1.63
2023-03-22T12:54:24.534Z,1.50
2023-03-22T12:58:52.049Z,1.40
2023-03-22T13:03:12.950Z,1.80
2023-03-22T13:07:39.552Z,2.23
2023-03-22T13:11:43.734Z,2.13
2023-03-22T13:16:03.058Z,3.00
2023-03-22T13:20:28.000Z,1.73
2023-03-22T13:24:33.600Z,2.37
2023-03-22T13:28:40.428Z,1.50
2023-03-22T13:32:55.326Z,2.23
2023-03-22T13:37:01.803Z,2.87
2023-03-22T13:41:44.490Z,3.63
2023-03-22T13:46:30.932Z,3.40
2023-03-22T13:50:36.038Z,2.17
2023-03-22T13:59:15.249Z,2.53
2023-03-22T14:03:29.085Z,2.27
2023-03-22T14:07:37.314Z,3.03
2023-03-22T14:11:47.537Z,2.13
2023-03-22T14:15:53.575Z,2.30
2023-03-22T14:19:59.898Z,1.27
